Time;durP1;ratioP1;P1;durP2;ratioP2;P2;SDS_P1;SDS_P2;PMS_P1;PMS_P2;Temp;Humidity;BMP_temperature;BMP_pressure;BME280_temperature;BME280_humidity;BME280_pressure;Samples;Min_cycle;Max_cycle;Signal;HPM_P1;HPM_P2
2022/06/08 00:00:37;;;;;;;7.78;4.25;;;9.00;99.90;;;;;;5076240;28;20033;-64
2022/06/08 00:03:07;;;;;;;5.80;3.40;;;9.00;99.90;;;;;;5080329;28;20033;-63
2022/06/08 00:05:33;;;;;;;6.13;3.22;;;9.00;99.90;;;;;;5070227;28;20115;-63
2022/06/08 00:07:58;;;;;;;4.28;3.20;;;8.90;99.90;;;;;;5068553;28;20170;-64
2022/06/08 00:10:24;;;;;;;6.43;3.67;;;8.90;99.90;;;;;;5074389;28;20473;-64
2022/06/08 00:12:49;;;;;;;6.30;3.67;;;8.90;99.90;;;;;;5067314;28;20040;-63
2022/06/08 00:15:15;;;;;;;7.90;3.90;;;9.00;99.90;;;;;;5065592;28;20365;-64
2022/06/08 00:17:41;;;;;;;5.00;3.75;;;9.00;99.90;;;;;;5066996;28;20040;-64
2022/06/08 00:20:08;;;;;;;6.38;4.13;;;8.90;99.90;;;;;;5064850;28;20033;-63
2022/06/08 00:22:35;;;;;;;6.45;4.35;;;8.90;99.90;;;;;;5073439;28;20097;-63
2022/06/08 00:25:01;;;;;;;7.70;3.72;;;8.90;99.90;;;;;;5067802;28;20476;-63
2022/06/08 00:27:27;;;;;;;6.20;3.90;;;8.90;99.90;;;;;;5066840;28;20527;-64
2022/06/08 00:29:53;;;;;;;6.07;3.80;;;8.80;99.90;;;;;;5067212;28;20362;-63
2022/06/08 00:32:18;;;;;;;7.53;4.20;;;8.80;99.90;;;;;;5065702;28;20404;-63
2022/06/08 00:34:44;;;;;;;9.13;4.65;;;8.80;99.90;;;;;;5067542;28;20043;-64
2022/06/08 00:37:10;;;;;;;7.97;4.82;;;8.80;99.90;;;;;;5068304;28;20036;-63
2022/06/08 00:39:36;;;;;;;8.95;5.00;;;8.80;99.90;;;;;;5068632;28;20032;-64
2022/06/08 00:42:08;;;;;;;10.55;5.80;;;8.80;99.90;;;;;;5068766;28;20036;-63
2022/06/08 00:44:44;;;;;;;8.15;5.18;;;8.80;99.90;;;;;;5069367;28;20056;-63
2022/06/08 00:47:21;;;;;;;10.70;5.50;;;8.80;99.90;;;;;;5071135;28;20492;-63
2022/06/08 00:49:58;;;;;;;8.57;5.18;;;8.80;99.90;;;;;;5068060;28;20427;-64
2022/06/08 00:52:26;;;;;;;8.38;5.10;;;8.80;99.90;;;;;;5072735;28;20482;-63
2022/06/08 00:54:57;;;;;;;9.70;5.15;;;8.80;99.90;;;;;;5072814;28;20043;-63
2022/06/08 00:57:24;;;;;;;;;;;8.80;99.90;;;;;;5072367;28;20385;-61
2022/06/08 01:00:19;;;;;;;7.72;4.93;;;8.80;99.90;;;;;;5075676;28;20323;-63
2022/06/08 01:02:44;;;;;;;8.90;3.97;;;8.60;99.90;;;;;;5069008;28;20052;-63
2022/06/08 01:05:22;;;;;;;5.95;3.72;;;8.60;99.90;;;;;;5065826;28;20039;-63
2022/06/08 01:07:49;;;;;;;5.43;3.85;;;8.60;99.90;;;;;;5072984;28;20071;-63
2022/06/08 01:10:17;;;;;;;8.88;4.63;;;8.50;99.90;;;;;;5066566;28;20040;-62
2022/06/08 01:12:44;;;;;;;9.38;4.20;;;8.50;99.90;;;;;;5071469;28;20106;-63
2022/06/08 01:15:20;;;;;;;5.97;3.95;;;8.40;99.90;;;;;;5069721;28;20461;-63
2022/06/08 01:17:45;;;;;;;4.60;3.20;;;8.40;99.90;;;;;;5066702;28;20083;-63
2022/06/08 01:20:12;;;;;;;9.75;4.70;;;8.40;99.90;;;;;;5062951;28;20044;-63
2022/06/08 01:22:38;;;;;;;7.93;5.00;;;8.40;99.90;;;;;;5068316;28;20047;-63
2022/06/08 01:25:06;;;;;;;8.85;4.93;;;8.30;99.90;;;;;;5068574;28;20094;-63
2022/06/08 01:27:56;;;;;;;8.18;5.20;;;8.40;99.90;;;;;;5068496;28;20041;-63
2022/06/08 01:30:47;;;;;;;8.57;5.50;;;8.40;99.90;;;;;;5068162;28;20926;-63
2022/06/08 01:33:26;;;;;;;;;;;8.40;99.90;;;;;;5075889;28;20103;-63
2022/06/08 01:36:01;;;;;;;10.25;5.82;;;8.40;99.90;;;;;;5073378;28;19948;-63
2022/06/08 01:38:31;;;;;;;8.20;5.70;;;8.40;99.90;;;;;;5071778;28;20040;-63
2022/06/08 01:41:19;;;;;;;9.25;5.80;;;8.50;99.90;;;;;;5061529;28;20106;-63
2022/06/08 01:44:09;;;;;;;9.85;5.57;;;8.50;99.90;;;;;;5074005;28;20385;-63
2022/06/08 01:46:55;;;;;;;8.57;5.60;;;8.50;99.90;;;;;;5069428;28;20052;-63
2022/06/08 01:49:46;;;;;;;9.38;5.47;;;8.50;99.90;;;;;;5062977;28;20143;-63
2022/06/08 01:52:38;;;;;;;6.03;4.38;;;8.50;99.90;;;;;;5070004;28;20067;-63
2022/06/08 01:55:28;;;;;;;9.55;5.60;;;8.50;99.90;;;;;;5070345;28;20032;-63
2022/06/08 01:58:18;;;;;;;10.05;4.80;;;8.50;99.90;;;;;;5068062;28;20476;-63
2022/06/08 02:00:49;;;;;;;9.00;5.68;;;8.50;99.90;;;;;;5067714;28;20071;-63
2022/06/08 02:03:31;;;;;;;8.07;5.57;;;8.50;99.90;;;;;;5066633;28;20128;-63
2022/06/08 02:06:33;;;;;;;10.40;6.05;;;8.50;99.90;;;;;;5064801;28;20452;-63
2022/06/08 02:09:10;;;;;;;9.25;6.22;;;8.50;99.90;;;;;;5062429;28;20045;-63
2022/06/08 02:11:44;;;;;;;9.77;5.85;;;8.40;99.90;;;;;;5068970;28;20080;-63
2022/06/08 02:14:13;;;;;;;10.27;6.22;;;8.40;99.90;;;;;;5069616;28;20028;-63
2022/06/08 02:16:42;;;;;;;11.25;6.70;;;8.50;99.90;;;;;;5066498;28;20531;-63
2022/06/08 02:19:18;;;;;;;16.77;8.13;;;8.50;99.90;;;;;;5064623;28;20032;-63
2022/06/08 02:21:52;;;;;;;11.90;7.22;;;8.60;99.90;;;;;;5068241;28;20490;-63
2022/06/08 02:24:21;;;;;;;14.15;7.38;;;8.60;99.90;;;;;;5065823;28;20504;-63
2022/06/08 02:26:57;;;;;;;12.23;6.32;;;8.60;99.90;;;;;;5071924;28;20040;-63
2022/06/08 02:29:36;;;;;;;11.00;7.07;;;8.60;99.90;;;;;;5069562;28;20045;-64
2022/06/08 02:34:58;;;;;;;13.73;8.52;;;8.70;99.90;;;;;;5067039;28;20044;-63
2022/06/08 02:37:30;;;;;;;14.15;7.95;;;8.90;99.90;;;;;;5073563;28;20039;-63
2022/06/08 02:39:57;;;;;;;12.48;7.35;;;9.00;99.90;;;;;;5073653;28;20046;-63
2022/06/08 02:42:34;;;;;;;13.57;7.65;;;9.00;99.90;;;;;;5078470;28;20048;-63
2022/06/08 02:45:11;;;;;;;18.30;8.27;;;9.00;99.90;;;;;;5070885;28;20047;-63
2022/06/08 02:47:38;;;;;;;14.73;7.70;;;9.00;99.90;;;;;;5055298;28;20048;-63
2022/06/08 02:50:11;;;;;;;12.32;7.13;;;8.90;99.90;;;;;;5078557;28;20063;-63
2022/06/08 02:52:42;;;;;;;13.45;6.90;;;9.00;99.90;;;;;;5072068;28;20063;-63
2022/06/08 02:55:44;;;;;;;12.07;6.57;;;8.90;99.90;;;;;;5074242;28;20089;-63
2022/06/08 02:58:17;;;;;;;9.40;6.00;;;8.90;99.90;;;;;;5072144;28;20174;-63
2022/06/08 03:00:51;;;;;;;10.85;6.20;;;8.90;99.90;;;;;;5070027;28;20033;-63
2022/06/08 03:03:21;;;;;;;11.65;6.85;;;9.00;99.90;;;;;;5070408;28;20491;-63
2022/06/08 03:06:20;;;;;;;11.75;7.10;;;9.00;99.90;;;;;;5068645;28;20040;-63
2022/06/08 03:08:59;;;;;;;14.05;7.70;;;9.00;99.90;;;;;;5058082;28;20064;-63
2022/06/08 03:11:35;;;;;;;14.73;8.23;;;8.90;99.90;;;;;;5078141;28;20040;-63
2022/06/08 03:14:10;;;;;;;18.10;8.30;;;8.90;99.90;;;;;;5073415;28;20028;-63
2022/06/08 03:17:02;;;;;;;17.67;8.30;;;8.90;99.90;;;;;;5069179;28;20083;-63
2022/06/08 03:19:30;;;;;;;16.33;9.30;;;8.90;99.90;;;;;;5066408;28;20119;-63
2022/06/08 03:21:56;;;;;;;18.17;9.90;;;8.90;99.90;;;;;;5075898;28;20064;-63
2022/06/08 03:24:23;;;;;;;20.33;10.07;;;9.00;99.90;;;;;;5075784;28;20036;-63
2022/06/08 03:26:54;;;;;;;18.10;8.05;;;9.00;99.90;;;;;;5071162;28;20051;-63
2022/06/08 03:29:19;;;;;;;14.02;7.28;;;9.10;99.90;;;;;;5070477;28;20040;-64
2022/06/08 03:31:45;;;;;;;12.93;6.68;;;9.20;99.90;;;;;;5071592;28;20032;-63
2022/06/08 03:34:11;;;;;;;13.98;7.10;;;9.20;99.90;;;;;;5069739;28;20480;-64
2022/06/08 03:36:37;;;;;;;12.73;7.00;;;9.20;99.90;;;;;;5072594;28;20036;-63
2022/06/08 03:39:04;;;;;;;9.98;6.55;;;9.20;99.90;;;;;;5068413;28;20395;-63
2022/06/08 03:41:29;;;;;;;11.88;6.65;;;9.20;99.90;;;;;;5077043;28;20043;-63
2022/06/08 03:43:55;;;;;;;12.88;6.80;;;9.20;99.90;;;;;;5069875;28;20424;-63
2022/06/08 03:46:21;;;;;;;12.10;7.80;;;9.20;99.90;;;;;;5071304;28;20048;-63
2022/06/08 03:48:46;;;;;;;15.88;8.10;;;9.20;99.90;;;;;;5069542;28;20047;-63
2022/06/08 03:51:15;;;;;;;13.77;9.05;;;9.20;99.90;;;;;;5073056;28;20051;-64
2022/06/08 03:53:47;;;;;;;19.27;8.73;;;9.30;99.90;;;;;;5070141;28;20446;-63
2022/06/08 03:56:16;;;;;;;21.13;11.32;;;9.30;99.90;;;;;;5071076;28;20036;-63
2022/06/08 03:58:42;;;;;;;20.85;11.65;;;9.40;99.90;;;;;;5066444;28;20041;-64
2022/06/08 04:01:08;;;;;;;22.85;11.75;;;9.40;99.90;;;;;;5068290;28;20035;-64
2022/06/08 04:03:33;;;;;;;29.67;14.57;;;9.50;99.90;;;;;;5070378;28;20532;-64
2022/06/08 04:06:00;;;;;;;28.55;14.05;;;9.60;99.90;;;;;;5070083;28;20036;-64
2022/06/08 04:08:27;;;;;;;27.40;14.18;;;9.60;99.90;;;;;;5076370;28;20044;-64
2022/06/08 04:10:52;;;;;;;29.23;13.80;;;9.70;99.90;;;;;;5067673;28;20090;-64
2022/06/08 04:13:18;;;;;;;30.05;14.57;;;9.70;99.90;;;;;;5069546;28;20519;-63
2022/06/08 04:15:44;;;;;;;24.75;14.45;;;9.80;99.90;;;;;;5069869;28;20048;-64
2022/06/08 04:18:12;;;;;;;27.77;14.25;;;9.90;99.90;;;;;;5070960;28;20404;-63
2022/06/08 04:20:39;;;;;;;26.30;13.80;;;10.00;99.90;;;;;;5066143;28;20032;-64
2022/06/08 04:23:05;;;;;;;32.83;15.38;;;10.10;99.90;;;;;;5071606;28;20055;-63
2022/06/08 04:25:31;;;;;;;34.42;17.30;;;10.30;99.90;;;;;;5085005;28;20040;-63
2022/06/08 04:27:57;;;;;;;40.22;19.13;;;10.50;99.90;;;;;;5067113;28;20048;-64
2022/06/08 04:30:23;;;;;;;44.78;21.13;;;10.70;99.90;;;;;;5076127;28;20043;-64
2022/06/08 04:32:49;;;;;;;49.58;22.83;;;10.90;99.90;;;;;;5068657;28;20093;-63
2022/06/08 04:35:16;;;;;;;55.10;24.52;;;11.20;99.90;;;;;;5067220;28;20048;-63
2022/06/08 04:37:42;;;;;;;55.08;24.42;;;11.30;99.90;;;;;;5084717;28;20047;-63
2022/06/08 04:40:11;;;;;;;45.92;23.27;;;11.50;99.90;;;;;;5068170;28;20028;-64
2022/06/08 04:42:37;;;;;;;45.25;22.73;;;11.70;99.90;;;;;;5076646;28;20044;-63
2022/06/08 04:45:05;;;;;;;45.78;23.25;;;11.80;99.90;;;;;;5076471;28;20089;-63
2022/06/08 04:47:31;;;;;;;52.30;23.65;;;11.90;99.90;;;;;;5072986;28;20506;-64
2022/06/08 04:49:57;;;;;;;46.83;23.10;;;11.90;99.90;;;;;;5064403;28;20028;-63
2022/06/08 04:52:23;;;;;;;43.72;21.73;;;12.00;99.90;;;;;;5069372;28;20047;-64
2022/06/08 04:54:49;;;;;;;44.80;22.17;;;12.00;99.90;;;;;;5081348;28;20058;-64
2022/06/08 04:57:15;;;;;;;42.20;21.23;;;12.00;99.90;;;;;;5076299;28;20051;-64
2022/06/08 04:59:41;;;;;;;43.63;21.80;;;12.00;99.90;;;;;;5062331;28;20499;-63
2022/06/08 05:02:07;;;;;;;38.53;20.80;;;12.00;99.90;;;;;;5069030;28;20124;-63
2022/06/08 05:04:33;;;;;;;39.67;20.02;;;12.00;99.90;;;;;;5072906;28;20032;-63
2022/06/08 05:06:59;;;;;;;42.13;21.20;;;12.10;99.90;;;;;;5067183;28;20405;-63
2022/06/08 05:09:25;;;;;;;36.22;20.42;;;12.10;99.90;;;;;;5067203;28;20048;-63
2022/06/08 05:11:51;;;;;;;38.70;20.55;;;12.20;99.90;;;;;;5071735;28;20040;-63
2022/06/08 05:14:17;;;;;;;44.20;21.63;;;12.20;99.90;;;;;;5072292;28;20409;-63
2022/06/08 05:16:43;;;;;;;39.15;19.88;;;12.30;99.90;;;;;;5075232;28;20029;-63
2022/06/08 05:19:09;;;;;;;39.75;20.70;;;12.30;99.90;;;;;;5068409;28;20040;-64
2022/06/08 05:21:35;;;;;;;39.80;20.73;;;12.40;99.90;;;;;;5073403;28;20450;-64
2022/06/08 05:24:00;;;;;;;36.65;19.92;;;12.40;99.90;;;;;;5069444;28;20040;-64
2022/06/08 05:26:26;;;;;;;38.67;19.30;;;12.40;99.90;;;;;;5081401;28;20036;-64
2022/06/08 05:28:52;;;;;;;38.17;20.05;;;12.40;99.90;;;;;;5069955;28;20051;-63
2022/06/08 05:31:17;;;;;;;38.40;19.23;;;12.40;99.90;;;;;;5069538;28;20178;-64
2022/06/08 05:33:43;;;;;;;41.08;21.00;;;12.50;99.90;;;;;;5069385;28;20119;-64
2022/06/08 05:36:09;;;;;;;36.25;19.83;;;12.50;99.90;;;;;;5070341;28;20117;-64
2022/06/08 05:38:35;;;;;;;38.17;21.20;;;12.50;99.90;;;;;;5067329;28;20040;-63
2022/06/08 05:41:01;;;;;;;42.65;20.80;;;12.60;99.90;;;;;;5067722;28;20388;-63
2022/06/08 05:43:27;;;;;;;40.60;21.15;;;12.70;99.90;;;;;;5075943;28;20048;-64
2022/06/08 05:45:53;;;;;;;41.78;22.60;;;12.70;99.90;;;;;;5070108;28;20562;-63
2022/06/08 05:48:18;;;;;;;38.30;20.40;;;12.90;99.90;;;;;;5072474;28;20123;-63
2022/06/08 05:50:45;;;;;;;42.60;21.73;;;13.00;99.90;;;;;;5065921;28;20038;-63
2022/06/08 05:53:11;;;;;;;36.65;20.95;;;13.10;99.90;;;;;;5070460;28;20037;-64
2022/06/08 05:55:37;;;;;;;40.35;21.77;;;13.20;99.90;;;;;;5083551;28;20040;-64
2022/06/08 05:58:03;;;;;;;38.58;21.23;;;13.30;99.90;;;;;;5050539;28;20752;-63
2022/06/08 06:00:32;;;;;;;41.58;22.17;;;13.40;99.90;;;;;;5069080;28;20043;-63
2022/06/08 06:02:58;;;;;;;35.15;21.15;;;13.50;99.90;;;;;;5072027;28;20120;-63
2022/06/08 06:05:29;;;;;;;46.28;21.75;;;13.60;99.90;;;;;;5067933;28;20621;-63
2022/06/08 06:07:56;;;;;;;37.22;21.13;;;13.60;99.90;;;;;;5071707;28;20036;-63
2022/06/08 06:10:22;;;;;;;35.42;20.60;;;13.70;99.90;;;;;;5082545;28;20050;-62
2022/06/08 06:12:48;;;;;;;37.60;21.27;;;13.80;99.90;;;;;;5076811;28;20041;-62
2022/06/08 06:15:15;;;;;;;36.97;20.42;;;13.90;99.90;;;;;;5069549;28;20282;-63
2022/06/08 06:17:41;;;;;;;32.17;20.13;;;13.90;99.90;;;;;;5070979;28;20037;-63
2022/06/08 06:20:07;;;;;;;38.15;19.77;;;13.90;99.90;;;;;;5070270;28;20038;-63
2022/06/08 06:22:35;;;;;;;31.85;19.00;;;14.20;99.90;;;;;;5067526;28;20119;-63
2022/06/08 06:25:01;;;;;;;27.63;19.13;;;14.60;99.90;;;;;;5073997;28;20040;-63
2022/06/08 06:27:27;;;;;;;27.45;17.70;;;15.00;99.90;;;;;;5070841;28;20119;-63
2022/06/08 06:29:53;;;;;;;29.40;17.83;;;15.30;99.90;;;;;;5082905;28;20180;-62
2022/06/08 06:32:26;;;;;;;24.42;15.80;;;15.80;99.90;;;;;;5077894;28;20040;-63
2022/06/08 06:34:52;;;;;;;21.77;14.60;;;16.10;99.90;;;;;;5076584;28;20059;-62
2022/06/08 06:37:18;;;;;;;22.75;14.90;;;16.00;99.90;;;;;;5074200;28;20032;-63
2022/06/08 06:39:44;;;;;;;21.00;13.65;;;16.00;99.90;;;;;;5075167;28;20039;-63
2022/06/08 06:42:15;;;;;;;25.58;14.93;;;15.90;99.90;;;;;;5069372;28;20032;-63
2022/06/08 06:44:40;;;;;;;20.90;13.98;;;15.90;99.90;;;;;;5073940;28;20126;-63
2022/06/08 06:47:06;;;;;;;21.25;14.07;;;16.00;99.90;;;;;;5078765;28;20072;-63
2022/06/08 06:49:32;;;;;;;19.38;13.23;;;16.10;99.90;;;;;;5076519;28;20476;-63
2022/06/08 06:51:58;;;;;;;19.60;12.35;;;16.30;99.90;;;;;;5071237;28;20075;-63
2022/06/08 06:54:24;;;;;;;16.35;11.75;;;16.50;99.90;;;;;;5076539;28;20037;-62
2022/06/08 06:56:49;;;;;;;16.05;11.02;;;16.70;99.90;;;;;;5072754;28;20062;-63
2022/06/08 06:59:15;;;;;;;18.63;11.32;;;16.80;99.90;;;;;;5083287;28;20427;-63
2022/06/08 07:01:41;;;;;;;16.73;12.25;;;16.90;99.90;;;;;;5084211;28;20474;-63
2022/06/08 07:04:07;;;;;;;15.10;10.82;;;17.10;99.90;;;;;;5093901;28;20115;-63
2022/06/08 07:06:33;;;;;;;16.73;11.05;;;17.40;99.90;;;;;;5092788;28;20115;-64
2022/06/08 07:09:01;;;;;;;16.30;10.93;;;17.60;99.90;;;;;;5075957;28;20036;-63
2022/06/08 07:11:35;;;;;;;15.15;11.05;;;17.60;99.90;;;;;;5075877;28;20097;-64
2022/06/08 07:14:03;;;;;;;16.88;11.65;;;17.80;99.90;;;;;;5076066;28;20060;-63
2022/06/08 07:16:29;;;;;;;16.70;11.13;;;18.20;99.90;;;;;;5075470;28;20400;-63
2022/06/08 07:18:55;;;;;;;17.17;11.40;;;18.20;99.90;;;;;;5084727;28;20039;-63
2022/06/08 07:21:21;;;;;;;15.80;10.68;;;18.40;99.90;;;;;;5080562;28;20039;-64
2022/06/08 07:23:46;;;;;;;14.30;10.10;;;18.50;99.90;;;;;;5075897;28;20123;-64
2022/06/08 07:26:12;;;;;;;17.15;10.15;;;18.70;99.90;;;;;;5079035;28;20041;-66
2022/06/08 07:28:38;;;;;;;16.00;10.35;;;19.10;99.90;;;;;;5084593;28;20494;-64
2022/06/08 07:31:04;;;;;;;15.80;10.63;;;19.20;99.90;;;;;;5075896;28;20250;-64
2022/06/08 07:33:30;;;;;;;13.82;10.32;;;19.20;99.90;;;;;;5069846;28;20523;-64
2022/06/08 07:35:57;;;;;;;12.02;8.48;;;19.10;94.60;;;;;;5066251;28;20032;-64
2022/06/08 07:38:22;;;;;;;16.02;9.80;;;19.20;99.30;;;;;;5083402;28;20090;-64
2022/06/08 07:40:48;;;;;;;11.40;8.40;;;19.30;98.20;;;;;;5073754;28;20037;-64
2022/06/08 07:43:14;;;;;;;12.02;8.23;;;19.20;97.60;;;;;;5082421;28;20127;-65
2022/06/08 07:45:39;;;;;;;8.55;6.85;;;19.40;97.50;;;;;;5073575;28;20048;-64
2022/06/08 07:50:50;;;;;;;9.30;6.93;;;19.70;95.50;;;;;;5071661;28;20036;-64
2022/06/08 07:53:15;;;;;;;9.90;6.00;;;19.80;94.90;;;;;;5077232;28;20361;-64
2022/06/08 07:55:42;;;;;;;6.07;4.93;;;19.60;93.10;;;;;;5071564;28;20035;-64
2022/06/08 07:58:07;;;;;;;7.47;5.40;;;19.60;93.20;;;;;;5070540;28;20594;-64
2022/06/08 08:00:34;;;;;;;6.30;5.30;;;19.60;91.80;;;;;;5075449;28;20025;-64
2022/06/08 08:03:00;;;;;;;6.82;4.95;;;19.50;92.20;;;;;;5092479;28;20385;-64
2022/06/08 08:05:26;;;;;;;7.00;5.18;;;19.80;92.10;;;;;;5070034;28;20076;-64
2022/06/08 08:07:52;;;;;;;6.97;4.10;;;20.00;91.70;;;;;;5086319;28;20487;-65
2022/06/08 08:10:24;;;;;;;6.10;4.10;;;20.30;91.70;;;;;;5071522;28;20036;-64
2022/06/08 08:12:51;;;;;;;5.50;4.03;;;20.30;87.00;;;;;;5092847;28;20039;-63
2022/06/08 08:15:19;;;;;;;4.80;3.17;;;20.40;87.00;;;;;;5076727;28;20087;-64
2022/06/08 08:17:44;;;;;;;9.65;3.75;;;20.30;89.00;;;;;;5072388;28;20037;-64
2022/06/08 08:20:14;;;;;;;4.38;3.47;;;20.30;88.80;;;;;;5068833;28;20031;-64
2022/06/08 08:22:39;;;;;;;5.05;3.55;;;20.50;88.10;;;;;;5072687;28;20036;-64
2022/06/08 08:25:06;;;;;;;5.50;3.67;;;20.70;88.60;;;;;;5071216;28;20102;-64
2022/06/08 08:27:31;;;;;;;5.28;3.83;;;20.80;87.60;;;;;;5069997;28;20403;-64
2022/06/08 08:29:57;;;;;;;4.88;3.53;;;20.70;86.60;;;;;;5069526;28;20033;-64
2022/06/08 08:32:22;;;;;;;3.63;3.33;;;20.60;85.10;;;;;;5070741;28;20036;-64
2022/06/08 08:34:48;;;;;;;4.70;3.13;;;21.00;84.10;;;;;;5074037;28;20054;-64
2022/06/08 08:37:13;;;;;;;5.63;3.30;;;21.50;83.60;;;;;;5072105;28;20062;-64
2022/06/08 08:39:39;;;;;;;5.10;3.38;;;21.80;83.90;;;;;;5069913;28;20035;-65
2022/06/08 08:42:20;;;;;;;4.38;3.05;;;21.90;83.70;;;;;;5082172;28;20044;-64
2022/06/08 08:44:49;;;;;;;3.92;3.20;;;21.60;81.60;;;;;;5070888;28;20044;-64
2022/06/08 08:47:35;;;;;;;3.35;2.35;;;21.20;75.60;;;;;;5072324;28;20044;-65
2022/06/08 08:50:24;;;;;;;4.45;2.70;;;21.80;75.90;;;;;;5059432;28;20068;-64
2022/06/08 08:52:49;;;;;;;4.35;2.80;;;21.80;78.80;;;;;;5086483;28;20101;-65
2022/06/08 08:55:23;;;;;;;4.90;3.15;;;22.20;78.80;;;;;;5078785;28;20040;-65
2022/06/08 08:58:00;;;;;;;5.70;3.10;;;22.70;77.00;;;;;;5074934;28;20039;-64
2022/06/08 09:00:37;;;;;;;5.22;3.47;;;22.80;69.00;;;;;;5079546;28;20054;-64
2022/06/08 09:03:26;;;;;;;4.00;2.83;;;22.50;69.00;;;;;;5076524;28;20047;-64
2022/06/08 09:05:54;;;;;;;6.65;3.08;;;22.80;71.80;;;;;;5060158;28;20408;-64
2022/06/08 09:08:22;;;;;;;4.68;2.97;;;22.90;71.80;;;;;;5073481;28;20032;-65
2022/06/08 09:10:50;;;;;;;5.28;3.58;;;23.20;70.40;;;;;;5078193;28;20033;-65
2022/06/08 09:13:34;;;;;;;3.95;3.15;;;23.10;70.60;;;;;;5078565;28;20415;-64
2022/06/08 09:15:59;;;;;;;4.00;2.70;;;22.80;68.50;;;;;;5071564;28;20040;-65
2022/06/08 09:18:41;;;;;;;5.30;3.15;;;22.50;72.20;;;;;;5075183;28;20046;-65
2022/06/08 09:21:21;;;;;;;5.78;3.42;;;22.70;72.50;;;;;;5080131;28;20093;-64
2022/06/08 09:23:49;;;;;;;;;;;22.20;69.40;;;;;;5086307;28;20086;-64
2022/06/08 09:26:27;;;;;;;4.47;2.60;;;22.10;72.70;;;;;;5078765;28;19989;-65
2022/06/08 09:29:12;;;;;;;6.55;2.90;;;22.40;74.00;;;;;;5070862;28;20111;-64
2022/06/08 09:31:38;;;;;;;3.80;2.35;;;22.40;69.30;;;;;;5073011;28;20106;-65
2022/06/08 09:34:11;;;;;;;4.35;2.63;;;22.40;68.00;;;;;;5077919;28;20117;-65
2022/06/08 09:36:36;;;;;;;5.60;2.63;;;22.00;71.60;;;;;;5080912;28;20032;-64
2022/06/08 09:39:02;;;;;;;5.22;2.80;;;21.60;72.20;;;;;;5076254;28;20033;-64
2022/06/08 09:41:51;;;;;;;3.65;2.40;;;21.50;73.40;;;;;;5094121;28;20086;-64
2022/06/08 09:44:31;;;;;;;6.93;3.33;;;21.60;73.80;;;;;;5086927;28;20048;-64
2022/06/08 09:53:11;;;;;;;5.65;3.55;;;22.40;70.90;;;;;;5079270;28;20079;-64
2022/06/08 09:56:10;;;;;;;5.43;3.00;;;23.30;68.10;;;;;;5073797;28;20043;-64
2022/06/08 09:58:59;;;;;;;4.95;3.38;;;23.00;69.90;;;;;;5073871;28;20036;-63
2022/06/08 10:01:41;;;;;;;5.73;3.60;;;22.30;68.60;;;;;;5072207;28;20052;-66
2022/06/08 10:04:26;;;;;;;3.58;2.83;;;21.70;69.80;;;;;;5071513;28;20039;-64
2022/06/08 10:07:16;;;;;;;4.15;3.00;;;21.60;71.90;;;;;;5073016;28;20048;-63
2022/06/08 10:10:12;;;;;;;5.90;3.47;;;21.70;73.30;;;;;;5075103;28;20048;-63
2022/06/08 10:12:57;;;;;;;3.72;3.25;;;21.40;71.10;;;;;;5078036;28;20376;-64
2022/06/08 10:15:38;;;;;;;4.22;3.53;;;21.30;73.30;;;;;;5077505;28;20055;-65
2022/06/08 10:18:29;;;;;;;4.50;2.53;;;21.40;73.90;;;;;;5078040;28;20333;-64
2022/06/08 10:21:02;;;;;;;3.38;2.40;;;21.40;71.60;;;;;;5075190;28;20094;-64
2022/06/08 10:23:33;;;;;;;4.80;2.30;;;21.50;73.40;;;;;;5073452;28;20518;-65
2022/06/08 10:26:15;;;;;;;3.42;2.33;;;21.60;72.60;;;;;;5073945;28;20075;-65
2022/06/08 10:28:49;;;;;;;3.33;2.05;;;21.60;71.80;;;;;;5070814;28;20582;-64
2022/06/08 10:31:47;;;;;;;3.85;2.33;;;21.70;73.30;;;;;;5082212;28;20040;-65
2022/06/08 10:34:25;;;;;;;5.00;2.42;;;21.60;72.90;;;;;;5067584;28;20056;-64
2022/06/08 10:36:54;;;;;;;3.97;2.13;;;22.10;70.50;;;;;;5073370;28;20174;-64
2022/06/08 10:39:21;;;;;;;3.38;2.45;;;23.00;68.70;;;;;;5072904;28;20040;-64
2022/06/08 10:44:51;;;;;;;4.28;2.20;;;24.20;62.00;;;;;;5074763;28;20101;-64
2022/06/08 10:47:33;;;;;;;5.13;2.40;;;25.10;63.00;;;;;;5087671;28;20040;-64
2022/06/08 10:50:01;;;;;;;5.50;2.42;;;25.50;61.10;;;;;;5079237;28;20048;-64
2022/06/08 10:52:48;;;;;;;4.75;2.40;;;26.20;59.60;;;;;;5087499;28;20092;-66
2022/06/08 10:55:13;;;;;;;4.47;2.38;;;25.90;56.80;;;;;;5072605;28;20036;-65
2022/06/08 10:57:44;;;;;;;3.63;2.10;;;25.00;60.00;;;;;;5076606;28;20040;-65
2022/06/08 11:00:22;;;;;;;2.47;2.22;;;25.10;59.50;;;;;;5078520;28;20078;-65
2022/06/08 11:03:00;;;;;;;2.63;1.88;;;24.50;60.60;;;;;;5072712;28;20040;-65
2022/06/08 11:05:35;;;;;;;4.00;2.53;;;24.00;62.70;;;;;;5083957;28;20036;-65
2022/06/08 11:08:06;;;;;;;4.25;2.63;;;23.60;59.70;;;;;;5085589;28;20551;-64
2022/06/08 11:10:44;;;;;;;5.05;2.53;;;23.80;63.80;;;;;;5074065;28;20040;-66
2022/06/08 11:13:22;;;;;;;3.80;2.40;;;24.00;62.00;;;;;;5084589;28;20098;-65
2022/06/08 11:15:50;;;;;;;3.80;2.28;;;24.10;62.90;;;;;;5070759;28;20043;-65
2022/06/08 11:18:19;;;;;;;3.28;2.00;;;24.10;63.50;;;;;;5087965;28;20169;-64
2022/06/08 11:21:08;;;;;;;5.65;2.70;;;24.40;62.70;;;;;;5073672;28;20378;-63
2022/06/08 11:23:40;;;;;;;5.63;2.63;;;23.90;62.10;;;;;;5055193;28;20052;-66
2022/06/08 11:26:28;;;;;;;6.38;2.72;;;24.20;61.60;;;;;;5086625;28;20107;-64
2022/06/08 11:29:00;;;;;;;4.82;3.10;;;24.60;59.80;;;;;;5085899;28;20039;-66
2022/06/08 11:31:28;;;;;;;7.05;3.22;;;24.00;58.90;;;;;;5071828;28;20037;-65
2022/06/08 11:34:16;;;;;;;4.53;2.40;;;23.80;59.80;;;;;;5071874;28;20076;-65
2022/06/08 11:37:03;;;;;;;4.57;2.90;;;24.30;60.00;;;;;;5072562;28;20094;-65
2022/06/08 11:39:46;;;;;;;4.72;2.78;;;24.20;61.20;;;;;;5072501;28;20036;-65
2022/06/08 11:42:22;;;;;;;5.03;3.33;;;24.60;59.30;;;;;;5073141;28;20036;-64
2022/06/08 11:44:59;;;;;;;5.15;3.08;;;24.40;58.10;;;;;;5075437;28;20049;-65
2022/06/08 11:48:12;;;;;;;5.13;3.38;;;24.30;57.90;;;;;;5080711;28;20036;-65
2022/06/08 11:50:49;;;;;;;4.80;3.25;;;24.30;60.60;;;;;;5079291;28;20040;-65
2022/06/08 11:53:35;;;;;;;4.47;4.10;;;23.80;59.70;;;;;;5092874;28;20048;-63
2022/06/08 11:56:29;;;;;;;5.00;3.70;;;23.30;59.20;;;;;;5076996;28;20218;-63
2022/06/08 11:58:58;;;;;;;4.50;4.10;;;22.90;61.40;;;;;;5073830;28;20067;-64
2022/06/08 12:01:30;;;;;;;4.43;3.97;;;22.50;63.00;;;;;;5076290;28;20036;-64
2022/06/08 12:04:04;;;;;;;6.60;3.85;;;22.50;63.80;;;;;;5084934;28;20753;-64
2022/06/08 12:06:35;;;;;;;4.88;4.22;;;22.30;65.60;;;;;;5071001;28;20052;-63
2022/06/08 12:09:19;;;;;;;6.45;4.10;;;22.00;64.50;;;;;;5083507;28;20076;-63
2022/06/08 12:11:53;;;;;;;8.77;4.15;;;22.30;65.50;;;;;;5072472;28;20109;-63
2022/06/08 12:14:25;;;;;;;5.18;4.18;;;22.20;65.70;;;;;;5071970;28;20079;-64
2022/06/08 12:17:11;;;;;;;4.93;3.80;;;21.90;65.70;;;;;;5085244;28;20089;-63
2022/06/08 12:19:53;;;;;;;6.00;4.10;;;21.80;66.20;;;;;;5078901;28;20043;-64
2022/06/08 12:22:26;;;;;;;4.68;4.13;;;21.60;67.60;;;;;;5087576;28;20051;-64
2022/06/08 12:25:17;;;;;;;4.03;3.63;;;21.50;68.40;;;;;;5073438;28;20511;-63
2022/06/08 12:28:14;;;;;;;3.95;3.25;;;21.30;70.20;;;;;;5077224;28;20028;-63
2022/06/08 12:30:48;;;;;;;6.25;2.00;;;21.10;71.10;;;;;;5088065;28;20040;-64
2022/06/08 12:33:14;;;;;;;4.70;1.67;;;20.80;72.40;;;;;;5084192;28;20044;-64
2022/06/08 12:35:57;;;;;;;5.22;1.60;;;20.30;71.80;;;;;;5089889;28;20047;-63
2022/06/08 12:38:30;;;;;;;4.80;1.10;;;20.00;73.10;;;;;;5081494;28;20033;-64
2022/06/08 12:41:04;;;;;;;4.22;1.38;;;19.50;74.50;;;;;;5071324;28;20032;-63
2022/06/08 12:43:37;;;;;;;6.82;1.45;;;19.30;78.40;;;;;;5075526;28;20135;-63
2022/06/08 12:46:23;;;;;;;2.35;1.60;;;18.40;84.80;;;;;;5072872;28;20068;-63
2022/06/08 12:48:58;;;;;;;4.63;1.95;;;17.70;93.50;;;;;;5089945;28;20032;-64
2022/06/08 12:51:29;;;;;;;7.00;1.95;;;17.00;98.50;;;;;;5071718;28;20071;-64
2022/06/08 12:54:05;;;;;;;7.45;2.75;;;16.80;99.90;;;;;;5070479;28;20565;-63
2022/06/08 12:56:31;;;;;;;6.88;2.92;;;16.70;99.90;;;;;;5071938;28;20048;-63
2022/06/08 12:58:57;;;;;;;6.60;2.47;;;16.50;99.90;;;;;;5079297;28;20028;-64
2022/06/08 13:01:27;;;;;;;6.45;2.60;;;16.50;99.90;;;;;;5085731;28;20038;-64
2022/06/08 13:03:53;;;;;;;4.95;2.22;;;16.40;99.90;;;;;;5073585;28;20403;-64
2022/06/08 13:06:19;;;;;;;8.65;3.40;;;16.30;99.90;;;;;;5070570;28;20040;-64
2022/06/08 13:08:45;;;;;;;7.20;2.53;;;16.20;99.90;;;;;;5071405;28;20686;-63
2022/06/08 13:11:20;;;;;;;4.72;1.92;;;16.20;99.90;;;;;;5074911;28;20093;-63
2022/06/08 13:13:47;;;;;;;7.10;2.15;;;16.30;99.90;;;;;;5083500;28;20040;-63
2022/06/08 13:16:21;;;;;;;4.90;2.20;;;16.20;99.90;;;;;;5081457;28;20844;-63
2022/06/08 13:18:47;;;;;;;3.63;2.00;;;16.20;99.90;;;;;;5068200;28;20040;-63
2022/06/08 13:21:14;;;;;;;3.15;1.70;;;16.20;99.90;;;;;;5084398;28;20036;-63